sensor_id;sensor_type;location;lat;lon;timestamp;P1;durP1;ratioP1;P2;durP2;ratioP2
3601;SDS011;1815;50.950;6.920;2023-02-01T00:01:53;6.82;;;3.83;;
3601;SDS011;1815;50.950;6.920;2023-02-01T00:04:19;14.43;;;7.70;;
3601;SDS011;1815;50.950;6.920;2023-02-01T00:06:45;19.60;;;9.17;;
3601;SDS011;1815;50.950;6.920;2023-02-01T00:09:12;14.17;;;7.90;;
3601;SDS011;1815;50.950;6.920;2023-02-01T00:11:38;13.80;;;7.63;;
3601;SDS011;1815;50.950;6.920;2023-02-01T00:14:04;16.00;;;9.60;;
3601;SDS011;1815;50.950;6.920;2023-02-01T00:16:30;14.53;;;6.83;;
3601;SDS011;1815;50.950;6.920;2023-02-01T00:19:01;10.60;;;5.20;;
3601;SDS011;1815;50.950;6.920;2023-02-01T00:21:31;10.63;;;5.85;;
3601;SDS011;1815;50.950;6.920;2023-02-01T00:23:58;14.63;;;8.60;;
3601;SDS011;1815;50.950;6.920;2023-02-01T00:26:26;16.15;;;9.02;;
3601;SDS011;1815;50.950;6.920;2023-02-01T00:28:55;16.48;;;6.50;;
3601;SDS011;1815;50.950;6.920;2023-02-01T00:31:21;8.67;;;4.63;;
3601;SDS011;1815;50.950;6.920;2023-02-01T00:33:47;12.43;;;4.60;;
3601;SDS011;1815;50.950;6.920;2023-02-01T00:36:14;10.75;;;5.35;;
3601;SDS011;1815;50.950;6.920;2023-02-01T00:38:40;9.75;;;3.55;;
3601;SDS011;1815;50.950;6.920;2023-02-01T00:41:07;7.10;;;3.40;;
3601;SDS011;1815;50.950;6.920;2023-02-01T00:43:37;10.30;;;3.90;;
3601;SDS011;1815;50.950;6.920;2023-02-01T00:46:03;11.43;;;4.00;;
3601;SDS011;1815;50.950;6.920;2023-02-01T00:48:29;8.73;;;3.47;;
3601;SDS011;1815;50.950;6.920;2023-02-01T00:51:06;7.83;;;3.43;;
3601;SDS011;1815;50.950;6.920;2023-02-01T00:53:33;11.18;;;4.32;;
3601;SDS011;1815;50.950;6.920;2023-02-01T00:55:59;9.80;;;3.75;;
3601;SDS011;1815;50.950;6.920;2023-02-01T00:58:25;10.37;;;3.80;;
3601;SDS011;1815;50.950;6.920;2023-02-01T01:03:33;10.93;;;3.40;;
3601;SDS011;1815;50.950;6.920;2023-02-01T01:06:01;11.45;;;3.22;;
3601;SDS011;1815;50.950;6.920;2023-02-01T01:08:30;7.45;;;2.88;;
3601;SDS011;1815;50.950;6.920;2023-02-01T01:10:55;8.80;;;3.27;;
3601;SDS011;1815;50.950;6.920;2023-02-01T01:13:21;7.10;;;2.00;;
3601;SDS011;1815;50.950;6.920;2023-02-01T01:15:47;7.80;;;2.95;;
3601;SDS011;1815;50.950;6.920;2023-02-01T01:18:13;7.37;;;2.30;;
3601;SDS011;1815;50.950;6.920;2023-02-01T01:20:40;9.32;;;2.28;;
3601;SDS011;1815;50.950;6.920;2023-02-01T01:23:06;4.78;;;2.30;;
3601;SDS011;1815;50.950;6.920;2023-02-01T01:25:32;5.75;;;2.50;;
3601;SDS011;1815;50.950;6.920;2023-02-01T01:28:03;7.35;;;2.88;;
3601;SDS011;1815;50.950;6.920;2023-02-01T01:30:29;8.23;;;2.73;;
3601;SDS011;1815;50.950;6.920;2023-02-01T01:32:54;8.17;;;2.60;;
3601;SDS011;1815;50.950;6.920;2023-02-01T01:35:20;10.57;;;2.70;;
3601;SDS011;1815;50.950;6.920;2023-02-01T01:37:46;7.10;;;2.00;;
3601;SDS011;1815;50.950;6.920;2023-02-01T01:40:13;6.30;;;2.17;;
3601;SDS011;1815;50.950;6.920;2023-02-01T01:42:39;9.75;;;2.90;;
3601;SDS011;1815;50.950;6.920;2023-02-01T01:45:22;9.80;;;3.28;;
3601;SDS011;1815;50.950;6.920;2023-02-01T01:47:52;7.07;;;2.15;;
3601;SDS011;1815;50.950;6.920;2023-02-01T01:53:20;6.32;;;1.77;;
3601;SDS011;1815;50.950;6.920;2023-02-01T01:55:56;6.60;;;2.35;;
3601;SDS011;1815;50.950;6.920;2023-02-01T01:58:23;4.87;;;2.00;;
3601;SDS011;1815;50.950;6.920;2023-02-01T02:00:55;4.97;;;2.47;;
3601;SDS011;1815;50.950;6.920;2023-02-01T02:03:41;10.45;;;3.08;;
3601;SDS011;1815;50.950;6.920;2023-02-01T02:06:14;6.82;;;3.00;;
3601;SDS011;1815;50.950;6.920;2023-02-01T02:08:49;8.00;;;1.73;;
3601;SDS011;1815;50.950;6.920;2023-02-01T02:11:16;6.53;;;2.27;;
3601;SDS011;1815;50.950;6.920;2023-02-01T02:13:43;6.40;;;1.70;;
3601;SDS011;1815;50.950;6.920;2023-02-01T02:31:04;11.40;;;3.20;;
3601;SDS011;1815;50.950;6.920;2023-02-01T02:34:03;9.80;;;2.38;;
3601;SDS011;1815;50.950;6.920;2023-02-01T02:39:24;5.00;;;1.80;;
3601;SDS011;1815;50.950;6.920;2023-02-01T02:42:26;6.82;;;2.95;;
3601;SDS011;1815;50.950;6.920;2023-02-01T02:45:30;6.85;;;2.53;;
3601;SDS011;1815;50.950;6.920;2023-02-01T02:48:29;6.47;;;2.65;;
3601;SDS011;1815;50.950;6.920;2023-02-01T02:51:08;9.52;;;2.40;;
3601;SDS011;1815;50.950;6.920;2023-02-01T02:53:58;9.95;;;3.17;;
3601;SDS011;1815;50.950;6.920;2023-02-01T02:56:49;6.93;;;2.33;;
3601;SDS011;1815;50.950;6.920;2023-02-01T02:59:37;5.97;;;2.40;;
3601;SDS011;1815;50.950;6.920;2023-02-01T03:02:23;8.38;;;2.75;;
3601;SDS011;1815;50.950;6.920;2023-02-01T03:05:10;10.30;;;3.00;;
3601;SDS011;1815;50.950;6.920;2023-02-01T03:10:26;6.43;;;2.72;;
3601;SDS011;1815;50.950;6.920;2023-02-01T03:13:06;11.55;;;4.22;;
3601;SDS011;1815;50.950;6.920;2023-02-01T03:19:08;6.53;;;2.22;;
3601;SDS011;1815;50.950;6.920;2023-02-01T03:21:40;9.73;;;3.10;;
3601;SDS011;1815;50.950;6.920;2023-02-01T03:24:20;9.50;;;2.97;;
3601;SDS011;1815;50.950;6.920;2023-02-01T03:26:49;9.43;;;3.03;;
3601;SDS011;1815;50.950;6.920;2023-02-01T03:29:21;5.88;;;3.60;;
3601;SDS011;1815;50.950;6.920;2023-02-01T03:31:54;10.68;;;3.70;;
3601;SDS011;1815;50.950;6.920;2023-02-01T03:34:20;9.55;;;2.42;;
3601;SDS011;1815;50.950;6.920;2023-02-01T03:39:17;10.25;;;2.85;;
3601;SDS011;1815;50.950;6.920;2023-02-01T03:41:58;10.70;;;3.55;;
3601;SDS011;1815;50.950;6.920;2023-02-01T03:44:35;10.55;;;3.10;;
3601;SDS011;1815;50.950;6.920;2023-02-01T03:47:08;8.88;;;3.70;;
3601;SDS011;1815;50.950;6.920;2023-02-01T03:49:41;10.43;;;2.58;;
3601;SDS011;1815;50.950;6.920;2023-02-01T03:52:15;11.48;;;3.03;;
3601;SDS011;1815;50.950;6.920;2023-02-01T03:54:47;7.47;;;2.92;;
3601;SDS011;1815;50.950;6.920;2023-02-01T03:57:16;16.58;;;3.80;;
3601;SDS011;1815;50.950;6.920;2023-02-01T03:59:52;8.52;;;3.33;;
3601;SDS011;1815;50.950;6.920;2023-02-01T04:02:19;9.60;;;2.95;;
3601;SDS011;1815;50.950;6.920;2023-02-01T04:04:44;7.27;;;3.10;;
3601;SDS011;1815;50.950;6.920;2023-02-01T04:07:14;10.75;;;3.53;;
3601;SDS011;1815;50.950;6.920;2023-02-01T04:09:42;11.23;;;2.97;;
3601;SDS011;1815;50.950;6.920;2023-02-01T04:12:08;8.23;;;3.00;;
3601;SDS011;1815;50.950;6.920;2023-02-01T04:14:33;9.00;;;2.80;;
3601;SDS011;1815;50.950;6.920;2023-02-01T04:16:59;7.57;;;2.93;;
3601;SDS011;1815;50.950;6.920;2023-02-01T04:19:26;5.38;;;2.15;;
3601;SDS011;1815;50.950;6.920;2023-02-01T04:21:52;7.03;;;3.20;;
3601;SDS011;1815;50.950;6.920;2023-02-01T04:24:17;7.10;;;2.80;;
3601;SDS011;1815;50.950;6.920;2023-02-01T04:26:43;13.90;;;3.57;;
3601;SDS011;1815;50.950;6.920;2023-02-01T04:29:09;6.20;;;2.40;;
3601;SDS011;1815;50.950;6.920;2023-02-01T04:31:35;10.75;;;2.40;;
3601;SDS011;1815;50.950;6.920;2023-02-01T04:34:01;7.45;;;2.78;;
3601;SDS011;1815;50.950;6.920;2023-02-01T04:36:27;10.80;;;2.93;;
3601;SDS011;1815;50.950;6.920;2023-02-01T04:38:53;7.83;;;2.70;;
3601;SDS011;1815;50.950;6.920;2023-02-01T04:41:19;17.57;;;3.30;;
3601;SDS011;1815;50.950;6.920;2023-02-01T04:43:46;14.25;;;3.10;;
3601;SDS011;1815;50.950;6.920;2023-02-01T04:46:15;7.55;;;2.63;;
3601;SDS011;1815;50.950;6.920;2023-02-01T04:48:41;10.17;;;2.77;;
3601;SDS011;1815;50.950;6.920;2023-02-01T04:51:08;8.90;;;3.13;;
3601;SDS011;1815;50.950;6.920;2023-02-01T04:53:35;11.10;;;3.40;;
3601;SDS011;1815;50.950;6.920;2023-02-01T04:56:01;5.82;;;2.58;;
3601;SDS011;1815;50.950;6.920;2023-02-01T04:58:27;8.10;;;2.60;;
3601;SDS011;1815;50.950;6.920;2023-02-01T05:00:52;11.67;;;3.23;;
3601;SDS011;1815;50.950;6.920;2023-02-01T05:03:18;14.57;;;3.53;;
3601;SDS011;1815;50.950;6.920;2023-02-01T05:05:44;11.70;;;2.50;;
3601;SDS011;1815;50.950;6.920;2023-02-01T05:08:11;11.68;;;3.10;;
3601;SDS011;1815;50.950;6.920;2023-02-01T05:10:37;11.57;;;2.50;;
3601;SDS011;1815;50.950;6.920;2023-02-01T05:13:03;12.00;;;2.93;;
3601;SDS011;1815;50.950;6.920;2023-02-01T05:15:47;7.65;;;2.58;;
3601;SDS011;1815;50.950;6.920;2023-02-01T05:18:15;12.57;;;2.53;;
3601;SDS011;1815;50.950;6.920;2023-02-01T05:20:40;10.70;;;3.00;;
3601;SDS011;1815;50.950;6.920;2023-02-01T05:23:06;9.67;;;3.80;;
3601;SDS011;1815;50.950;6.920;2023-02-01T05:25:32;8.43;;;2.40;;
3601;SDS011;1815;50.950;6.920;2023-02-01T05:27:57;6.90;;;2.13;;
3601;SDS011;1815;50.950;6.920;2023-02-01T05:30:23;8.15;;;2.80;;
3601;SDS011;1815;50.950;6.920;2023-02-01T05:32:50;13.90;;;2.57;;
3601;SDS011;1815;50.950;6.920;2023-02-01T05:35:16;6.55;;;2.15;;
3601;SDS011;1815;50.950;6.920;2023-02-01T05:37:42;13.23;;;3.93;;
3601;SDS011;1815;50.950;6.920;2023-02-01T05:40:08;8.27;;;2.10;;
3601;SDS011;1815;50.950;6.920;2023-02-01T05:42:34;9.88;;;2.33;;
3601;SDS011;1815;50.950;6.920;2023-02-01T05:45:00;6.97;;;2.40;;
3601;SDS011;1815;50.950;6.920;2023-02-01T05:47:26;13.45;;;2.60;;
3601;SDS011;1815;50.950;6.920;2023-02-01T05:49:52;11.65;;;2.28;;
3601;SDS011;1815;50.950;6.920;2023-02-01T05:52:18;9.17;;;2.70;;
3601;SDS011;1815;50.950;6.920;2023-02-01T05:54:47;9.32;;;2.60;;
3601;SDS011;1815;50.950;6.920;2023-02-01T05:57:13;11.20;;;3.25;;
3601;SDS011;1815;50.950;6.920;2023-02-01T05:59:39;16.05;;;2.65;;
3601;SDS011;1815;50.950;6.920;2023-02-01T06:02:10;10.90;;;2.10;;
3601;SDS011;1815;50.950;6.920;2023-02-01T06:04:36;9.25;;;2.60;;
3601;SDS011;1815;50.950;6.920;2023-02-01T06:07:05;6.35;;;2.22;;
3601;SDS011;1815;50.950;6.920;2023-02-01T06:09:33;10.80;;;2.20;;
3601;SDS011;1815;50.950;6.920;2023-02-01T06:11:59;9.30;;;2.53;;
3601;SDS011;1815;50.950;6.920;2023-02-01T06:14:26;10.50;;;2.53;;
3601;SDS011;1815;50.950;6.920;2023-02-01T06:16:53;9.55;;;2.78;;
3601;SDS011;1815;50.950;6.920;2023-02-01T06:19:19;10.48;;;2.67;;
3601;SDS011;1815;50.950;6.920;2023-02-01T06:21:45;9.93;;;2.70;;
3601;SDS011;1815;50.950;6.920;2023-02-01T06:24:10;8.93;;;2.53;;
3601;SDS011;1815;50.950;6.920;2023-02-01T06:26:36;12.53;;;3.17;;
3601;SDS011;1815;50.950;6.920;2023-02-01T06:29:04;8.10;;;2.50;;
3601;SDS011;1815;50.950;6.920;2023-02-01T06:31:31;13.02;;;2.90;;
3601;SDS011;1815;50.950;6.920;2023-02-01T06:34:01;8.63;;;2.63;;
3601;SDS011;1815;50.950;6.920;2023-02-01T06:36:28;14.23;;;2.47;;
3601;SDS011;1815;50.950;6.920;2023-02-01T06:38:55;8.15;;;2.83;;
3601;SDS011;1815;50.950;6.920;2023-02-01T06:41:21;10.55;;;3.85;;
3601;SDS011;1815;50.950;6.920;2023-02-01T06:43:48;13.25;;;3.33;;
3601;SDS011;1815;50.950;6.920;2023-02-01T06:46:14;12.18;;;3.00;;
3601;SDS011;1815;50.950;6.920;2023-02-01T06:48:42;12.43;;;2.47;;
3601;SDS011;1815;50.950;6.920;2023-02-01T06:51:21;11.00;;;3.37;;
3601;SDS011;1815;50.950;6.920;2023-02-01T06:53:48;15.55;;;3.45;;
3601;SDS011;1815;50.950;6.920;2023-02-01T06:56:14;6.13;;;2.00;;
3601;SDS011;1815;50.950;6.920;2023-02-01T06:58:39;12.37;;;3.07;;
3601;SDS011;1815;50.950;6.920;2023-02-01T07:01:06;8.27;;;3.80;;
3601;SDS011;1815;50.950;6.920;2023-02-01T07:03:33;10.43;;;2.60;;
3601;SDS011;1815;50.950;6.920;2023-02-01T07:05:59;8.63;;;2.60;;
3601;SDS011;1815;50.950;6.920;2023-02-01T07:08:26;7.10;;;2.03;;
3601;SDS011;1815;50.950;6.920;2023-02-01T07:10:53;14.63;;;2.90;;
3601;SDS011;1815;50.950;6.920;2023-02-01T07:13:19;12.20;;;2.70;;
3601;SDS011;1815;50.950;6.920;2023-02-01T07:15:44;12.20;;;3.97;;
3601;SDS011;1815;50.950;6.920;2023-02-01T07:18:13;9.00;;;3.30;;
3601;SDS011;1815;50.950;6.920;2023-02-01T07:20:39;9.80;;;2.45;;
3601;SDS011;1815;50.950;6.920;2023-02-01T07:23:05;5.97;;;1.70;;
3601;SDS011;1815;50.950;6.920;2023-02-01T07:25:34;18.15;;;2.63;;
3601;SDS011;1815;50.950;6.920;2023-02-01T07:28:00;8.40;;;2.03;;
3601;SDS011;1815;50.950;6.920;2023-02-01T07:30:25;7.60;;;2.80;;
3601;SDS011;1815;50.950;6.920;2023-02-01T07:32:51;9.03;;;3.50;;
3601;SDS011;1815;50.950;6.920;2023-02-01T07:35:17;13.00;;;2.93;;
3601;SDS011;1815;50.950;6.920;2023-02-01T07:37:43;18.07;;;2.63;;
3601;SDS011;1815;50.950;6.920;2023-02-01T07:40:09;9.67;;;3.17;;
3601;SDS011;1815;50.950;6.920;2023-02-01T07:42:35;9.80;;;2.72;;
3601;SDS011;1815;50.950;6.920;2023-02-01T07:45:01;8.47;;;2.57;;
3601;SDS011;1815;50.950;6.920;2023-02-01T07:47:27;11.68;;;2.55;;
3601;SDS011;1815;50.950;6.920;2023-02-01T07:49:53;15.37;;;2.50;;
3601;SDS011;1815;50.950;6.920;2023-02-01T07:52:19;12.67;;;2.57;;
3601;SDS011;1815;50.950;6.920;2023-02-01T07:54:45;15.97;;;2.60;;
3601;SDS011;1815;50.950;6.920;2023-02-01T07:57:10;13.20;;;2.93;;
3601;SDS011;1815;50.950;6.920;2023-02-01T07:59:37;14.50;;;2.50;;
3601;SDS011;1815;50.950;6.920;2023-02-01T08:02:26;14.15;;;2.72;;
3601;SDS011;1815;50.950;6.920;2023-02-01T08:04:52;11.03;;;3.10;;
3601;SDS011;1815;50.950;6.920;2023-02-01T08:07:18;11.55;;;2.90;;
3601;SDS011;1815;50.950;6.920;2023-02-01T08:09:44;9.30;;;1.90;;
3601;SDS011;1815;50.950;6.920;2023-02-01T08:12:10;8.38;;;2.10;;
3601;SDS011;1815;50.950;6.920;2023-02-01T08:14:35;12.17;;;2.37;;
3601;SDS011;1815;50.950;6.920;2023-02-01T08:17:01;11.90;;;3.00;;
3601;SDS011;1815;50.950;6.920;2023-02-01T08:19:27;12.73;;;2.40;;
3601;SDS011;1815;50.950;6.920;2023-02-01T08:21:53;9.43;;;3.33;;
3601;SDS011;1815;50.950;6.920;2023-02-01T08:24:18;8.23;;;2.13;;
3601;SDS011;1815;50.950;6.920;2023-02-01T08:26:44;8.20;;;2.10;;
3601;SDS011;1815;50.950;6.920;2023-02-01T08:29:10;11.83;;;2.60;;
3601;SDS011;1815;50.950;6.920;2023-02-01T08:31:37;6.88;;;2.10;;
3601;SDS011;1815;50.950;6.920;2023-02-01T08:34:05;8.80;;;3.03;;
3601;SDS011;1815;50.950;6.920;2023-02-01T08:36:33;9.75;;;3.05;;
3601;SDS011;1815;50.950;6.920;2023-02-01T08:39:00;12.80;;;2.72;;
3601;SDS011;1815;50.950;6.920;2023-02-01T08:41:27;9.02;;;2.70;;
3601;SDS011;1815;50.950;6.920;2023-02-01T08:43:55;9.30;;;2.38;;
3601;SDS011;1815;50.950;6.920;2023-02-01T08:46:22;15.85;;;2.72;;
3601;SDS011;1815;50.950;6.920;2023-02-01T08:48:47;12.18;;;2.40;;
3601;SDS011;1815;50.950;6.920;2023-02-01T08:51:15;13.75;;;2.92;;
3601;SDS011;1815;50.950;6.920;2023-02-01T08:53:42;7.13;;;2.65;;
3601;SDS011;1815;50.950;6.920;2023-02-01T08:56:08;8.20;;;2.80;;
3601;SDS011;1815;50.950;6.920;2023-02-01T08:58:36;11.80;;;2.63;;
3601;SDS011;1815;50.950;6.920;2023-02-01T09:01:14;10.00;;;2.92;;
3601;SDS011;1815;50.950;6.920;2023-02-01T09:03:42;10.00;;;1.90;;
3601;SDS011;1815;50.950;6.920;2023-02-01T09:06:09;9.75;;;2.33;;
3601;SDS011;1815;50.950;6.920;2023-02-01T09:08:37;14.77;;;2.47;;
3601;SDS011;1815;50.950;6.920;2023-02-01T09:11:05;10.52;;;3.00;;
3601;SDS011;1815;50.950;6.920;2023-02-01T09:13:32;11.65;;;2.97;;
3601;SDS011;1815;50.950;6.920;2023-02-01T09:15:59;9.13;;;2.50;;
3601;SDS011;1815;50.950;6.920;2023-02-01T09:18:25;7.30;;;3.10;;
3601;SDS011;1815;50.950;6.920;2023-02-01T09:20:52;9.32;;;3.17;;
3601;SDS011;1815;50.950;6.920;2023-02-01T09:23:17;6.77;;;2.50;;
3601;SDS011;1815;50.950;6.920;2023-02-01T09:25:45;12.05;;;2.17;;
3601;SDS011;1815;50.950;6.920;2023-02-01T09:28:11;13.60;;;2.88;;
3601;SDS011;1815;50.950;6.920;2023-02-01T09:30:37;14.67;;;2.63;;
3601;SDS011;1815;50.950;6.920;2023-02-01T09:33:03;11.57;;;2.60;;
3601;SDS011;1815;50.950;6.920;2023-02-01T09:35:29;12.20;;;3.75;;
3601;SDS011;1815;50.950;6.920;2023-02-01T09:37:55;9.50;;;2.70;;
3601;SDS011;1815;50.950;6.920;2023-02-01T09:40:21;7.50;;;2.53;;
3601;SDS011;1815;50.950;6.920;2023-02-01T09:45:59;12.48;;;2.63;;
3601;SDS011;1815;50.950;6.920;2023-02-01T09:48:41;8.68;;;2.40;;
3601;SDS011;1815;50.950;6.920;2023-02-01T09:51:16;16.17;;;4.20;;
3601;SDS011;1815;50.950;6.920;2023-02-01T09:56:40;8.43;;;2.63;;
3601;SDS011;1815;50.950;6.920;2023-02-01T10:01:48;10.25;;;2.67;;
3601;SDS011;1815;50.950;6.920;2023-02-01T10:04:14;8.67;;;3.40;;
3601;SDS011;1815;50.950;6.920;2023-02-01T10:06:45;14.25;;;3.30;;
3601;SDS011;1815;50.950;6.920;2023-02-01T10:14:57;13.25;;;3.35;;
3601;SDS011;1815;50.950;6.920;2023-02-01T10:26:31;15.57;;;3.78;;
3601;SDS011;1815;50.950;6.920;2023-02-01T10:29:02;14.95;;;4.75;;
3601;SDS011;1815;50.950;6.920;2023-02-01T10:31:30;11.00;;;3.67;;
3601;SDS011;1815;50.950;6.920;2023-02-01T10:34:22;11.80;;;2.65;;
3601;SDS011;1815;50.950;6.920;2023-02-01T10:36:55;12.05;;;3.60;;
3601;SDS011;1815;50.950;6.920;2023-02-01T10:39:26;12.75;;;3.13;;
3601;SDS011;1815;50.950;6.920;2023-02-01T10:41:52;9.30;;;2.37;;
3601;SDS011;1815;50.950;6.920;2023-02-01T10:44:22;10.23;;;2.67;;
3601;SDS011;1815;50.950;6.920;2023-02-01T10:46:51;5.60;;;2.22;;
3601;SDS011;1815;50.950;6.920;2023-02-01T10:49:32;8.03;;;2.47;;
3601;SDS011;1815;50.950;6.920;2023-02-01T10:52:10;14.30;;;3.97;;
3601;SDS011;1815;50.950;6.920;2023-02-01T10:54:41;12.25;;;2.50;;
3601;SDS011;1815;50.950;6.920;2023-02-01T10:57:08;7.03;;;2.80;;
3601;SDS011;1815;50.950;6.920;2023-02-01T10:59:35;9.55;;;3.05;;
3601;SDS011;1815;50.950;6.920;2023-02-01T11:02:05;10.00;;;2.55;;
3601;SDS011;1815;50.950;6.920;2023-02-01T11:04:58;10.70;;;3.03;;
3601;SDS011;1815;50.950;6.920;2023-02-01T11:07:35;15.40;;;3.28;;
3601;SDS011;1815;50.950;6.920;2023-02-01T11:10:02;10.05;;;2.55;;
3601;SDS011;1815;50.950;6.920;2023-02-01T11:12:36;17.25;;;3.80;;
3601;SDS011;1815;50.950;6.920;2023-02-01T11:15:12;7.90;;;3.10;;
3601;SDS011;1815;50.950;6.920;2023-02-01T11:17:46;6.85;;;2.65;;
3601;SDS011;1815;50.950;6.920;2023-02-01T11:22:57;11.70;;;4.57;;
3601;SDS011;1815;50.950;6.920;2023-02-01T11:25:23;11.77;;;5.13;;
3601;SDS011;1815;50.950;6.920;2023-02-01T11:27:50;10.90;;;5.60;;
3601;SDS011;1815;50.950;6.920;2023-02-01T11:30:19;10.98;;;4.82;;
3601;SDS011;1815;50.950;6.920;2023-02-01T11:32:55;11.98;;;3.70;;
3601;SDS011;1815;50.950;6.920;2023-02-01T11:35:21;10.73;;;4.30;;
3601;SDS011;1815;50.950;6.920;2023-02-01T11:37:52;12.50;;;2.87;;
3601;SDS011;1815;50.950;6.920;2023-02-01T11:40:28;10.50;;;3.80;;
3601;SDS011;1815;50.950;6.920;2023-02-01T11:43:11;10.15;;;2.75;;
3601;SDS011;1815;50.950;6.920;2023-02-01T11:46:08;11.43;;;3.35;;
3601;SDS011;1815;50.950;6.920;2023-02-01T11:48:42;8.27;;;2.10;;
3601;SDS011;1815;50.950;6.920;2023-02-01T11:51:19;13.18;;;2.55;;
3601;SDS011;1815;50.950;6.920;2023-02-01T12:03:11;9.60;;;2.00;;
3601;SDS011;1815;50.950;6.920;2023-02-01T12:05:59;10.52;;;2.42;;
3601;SDS011;1815;50.950;6.920;2023-02-01T12:08:46;14.93;;;2.75;;
3601;SDS011;1815;50.950;6.920;2023-02-01T12:14:24;9.55;;;2.85;;
3601;SDS011;1815;50.950;6.920;2023-02-01T12:26:38;6.40;;;1.92;;
3601;SDS011;1815;50.950;6.920;2023-02-01T12:40:47;13.20;;;3.55;;
3601;SDS011;1815;50.950;6.920;2023-02-01T12:43:22;17.80;;;2.88;;
3601;SDS011;1815;50.950;6.920;2023-02-01T12:46:03;7.75;;;2.97;;
3601;SDS011;1815;50.950;6.920;2023-02-01T12:48:49;9.30;;;3.90;;
3601;SDS011;1815;50.950;6.920;2023-02-01T12:51:37;15.05;;;4.32;;
3601;SDS011;1815;50.950;6.920;2023-02-01T12:56:47;12.32;;;5.35;;
3601;SDS011;1815;50.950;6.920;2023-02-01T13:02:06;15.30;;;2.95;;
3601;SDS011;1815;50.950;6.920;2023-02-01T13:04:39;10.20;;;3.15;;
3601;SDS011;1815;50.950;6.920;2023-02-01T13:07:13;10.93;;;4.63;;
3601;SDS011;1815;50.950;6.920;2023-02-01T13:09:52;9.30;;;3.10;;
3601;SDS011;1815;50.950;6.920;2023-02-01T13:12:24;12.48;;;4.45;;
3601;SDS011;1815;50.950;6.920;2023-02-01T13:15:13;13.18;;;3.42;;
3601;SDS011;1815;50.950;6.920;2023-02-01T13:17:48;9.40;;;2.80;;
3601;SDS011;1815;50.950;6.920;2023-02-01T13:20:24;14.25;;;3.28;;
3601;SDS011;1815;50.950;6.920;2023-02-01T13:23:13;10.05;;;3.40;;
3601;SDS011;1815;50.950;6.920;2023-02-01T13:25:47;11.63;;;3.80;;
3601;SDS011;1815;50.950;6.920;2023-02-01T13:28:24;10.88;;;3.40;;
3601;SDS011;1815;50.950;6.920;2023-02-01T13:31:23;7.93;;;2.05;;
3601;SDS011;1815;50.950;6.920;2023-02-01T13:34:15;7.30;;;2.50;;
3601;SDS011;1815;50.950;6.920;2023-02-01T13:37:14;7.05;;;2.20;;
3601;SDS011;1815;50.950;6.920;2023-02-01T13:39:59;9.52;;;2.15;;
3601;SDS011;1815;50.950;6.920;2023-02-01T13:42:48;9.15;;;2.47;;
3601;SDS011;1815;50.950;6.920;2023-02-01T13:45:18;8.73;;;1.85;;
3601;SDS011;1815;50.950;6.920;2023-02-01T13:47:56;14.15;;;2.38;;
3601;SDS011;1815;50.950;6.920;2023-02-01T13:55:38;8.57;;;2.00;;
3601;SDS011;1815;50.950;6.920;2023-02-01T14:03:46;9.25;;;2.40;;
3601;SDS011;1815;50.950;6.920;2023-02-01T14:09:39;10.93;;;2.95;;
3601;SDS011;1815;50.950;6.920;2023-02-01T14:12:08;12.38;;;3.53;;
3601;SDS011;1815;50.950;6.920;2023-02-01T14:15:23;7.95;;;2.65;;
3601;SDS011;1815;50.950;6.920;2023-02-01T14:17:53;9.48;;;3.22;;
3601;SDS011;1815;50.950;6.920;2023-02-01T14:23:10;8.77;;;2.40;;
3601;SDS011;1815;50.950;6.920;2023-02-01T14:25:38;8.13;;;2.30;;
3601;SDS011;1815;50.950;6.920;2023-02-01T14:28:38;11.52;;;3.10;;
3601;SDS011;1815;50.950;6.920;2023-02-01T14:30:57;13.95;;;4.18;;
3601;SDS011;1815;50.950;6.920;2023-02-01T14:33:25;10.50;;;3.28;;
3601;SDS011;1815;50.950;6.920;2023-02-01T14:36:12;9.73;;;2.10;;
3601;SDS011;1815;50.950;6.920;2023-02-01T14:38:39;9.27;;;2.40;;
3601;SDS011;1815;50.950;6.920;2023-02-01T14:41:21;11.60;;;2.67;;
3601;SDS011;1815;50.950;6.920;2023-02-01T14:49:48;9.32;;;3.03;;
3601;SDS011;1815;50.950;6.920;2023-02-01T14:52:36;7.18;;;2.17;;
3601;SDS011;1815;50.950;6.920;2023-02-01T14:55:18;7.00;;;2.30;;
3601;SDS011;1815;50.950;6.920;2023-02-01T15:01:25;12.43;;;2.15;;
3601;SDS011;1815;50.950;6.920;2023-02-01T15:11:59;13.90;;;6.60;;
3601;SDS011;1815;50.950;6.920;2023-02-01T15:14:34;21.27;;;11.88;;
3601;SDS011;1815;50.950;6.920;2023-02-01T15:17:02;20.75;;;10.45;;
3601;SDS011;1815;50.950;6.920;2023-02-01T15:19:41;20.40;;;10.15;;
3601;SDS011;1815;50.950;6.920;2023-02-01T15:22:22;14.43;;;7.32;;
3601;SDS011;1815;50.950;6.920;2023-02-01T15:24:52;9.35;;;4.57;;
3601;SDS011;1815;50.950;6.920;2023-02-01T15:27:19;13.52;;;4.00;;
3601;SDS011;1815;50.950;6.920;2023-02-01T15:29:45;7.82;;;2.95;;
3601;SDS011;1815;50.950;6.920;2023-02-01T15:32:27;5.30;;;2.90;;
3601;SDS011;1815;50.950;6.920;2023-02-01T15:34:53;8.98;;;2.53;;
3601;SDS011;1815;50.950;6.920;2023-02-01T15:37:20;13.37;;;3.30;;
3601;SDS011;1815;50.950;6.920;2023-02-01T15:42:55;13.18;;;4.72;;
3601;SDS011;1815;50.950;6.920;2023-02-01T15:45:27;9.50;;;3.90;;
3601;SDS011;1815;50.950;6.920;2023-02-01T15:47:56;7.63;;;2.53;;
3601;SDS011;1815;50.950;6.920;2023-02-01T15:50:23;9.32;;;4.50;;
3601;SDS011;1815;50.950;6.920;2023-02-01T15:52:50;7.25;;;3.05;;
3601;SDS011;1815;50.950;6.920;2023-02-01T15:55:24;9.65;;;2.15;;
3601;SDS011;1815;50.950;6.920;2023-02-01T15:57:56;12.43;;;3.00;;
3601;SDS011;1815;50.950;6.920;2023-02-01T16:00:23;8.20;;;2.77;;
3601;SDS011;1815;50.950;6.920;2023-02-01T16:03:01;8.75;;;3.70;;
3601;SDS011;1815;50.950;6.920;2023-02-01T16:08:15;8.18;;;3.17;;
3601;SDS011;1815;50.950;6.920;2023-02-01T16:10:46;8.10;;;4.78;;
3601;SDS011;1815;50.950;6.920;2023-02-01T16:13:14;10.80;;;4.30;;
3601;SDS011;1815;50.950;6.920;2023-02-01T16:15:41;11.43;;;4.20;;
3601;SDS011;1815;50.950;6.920;2023-02-01T16:18:07;7.63;;;3.38;;
3601;SDS011;1815;50.950;6.920;2023-02-01T16:20:35;10.30;;;3.90;;
3601;SDS011;1815;50.950;6.920;2023-02-01T16:23:04;8.80;;;2.95;;
3601;SDS011;1815;50.950;6.920;2023-02-01T16:25:30;7.60;;;2.35;;
3601;SDS011;1815;50.950;6.920;2023-02-01T16:27:56;7.43;;;1.83;;
3601;SDS011;1815;50.950;6.920;2023-02-01T16:30:22;8.07;;;3.20;;
3601;SDS011;1815;50.950;6.920;2023-02-01T16:32:51;7.35;;;2.53;;
3601;SDS011;1815;50.950;6.920;2023-02-01T16:35:27;7.07;;;2.83;;
3601;SDS011;1815;50.950;6.920;2023-02-01T16:37:58;9.75;;;2.85;;
3601;SDS011;1815;50.950;6.920;2023-02-01T16:40:23;12.77;;;2.58;;
3601;SDS011;1815;50.950;6.920;2023-02-01T16:42:51;7.90;;;3.27;;
3601;SDS011;1815;50.950;6.920;2023-02-01T16:45:20;10.95;;;4.10;;
3601;SDS011;1815;50.950;6.920;2023-02-01T16:47:49;11.33;;;4.57;;
3601;SDS011;1815;50.950;6.920;2023-02-01T16:50:23;8.98;;;4.18;;
3601;SDS011;1815;50.950;6.920;2023-02-01T16:52:51;14.55;;;4.53;;
3601;SDS011;1815;50.950;6.920;2023-02-01T16:55:18;10.45;;;4.40;;
3601;SDS011;1815;50.950;6.920;2023-02-01T16:57:46;8.60;;;3.53;;
3601;SDS011;1815;50.950;6.920;2023-02-01T17:00:12;10.07;;;3.13;;
3601;SDS011;1815;50.950;6.920;2023-02-01T17:02:40;10.80;;;2.67;;
3601;SDS011;1815;50.950;6.920;2023-02-01T17:05:07;15.02;;;3.83;;
3601;SDS011;1815;50.950;6.920;2023-02-01T17:07:34;10.90;;;3.35;;
3601;SDS011;1815;50.950;6.920;2023-02-01T17:10:00;9.27;;;2.90;;
3601;SDS011;1815;50.950;6.920;2023-02-01T17:12:29;11.90;;;2.85;;
3601;SDS011;1815;50.950;6.920;2023-02-01T17:14:56;7.90;;;2.95;;
3601;SDS011;1815;50.950;6.920;2023-02-01T17:17:23;10.18;;;2.60;;
3601;SDS011;1815;50.950;6.920;2023-02-01T17:19:53;5.93;;;2.53;;
3601;SDS011;1815;50.950;6.920;2023-02-01T17:22:19;8.00;;;2.43;;
3601;SDS011;1815;50.950;6.920;2023-02-01T17:24:46;8.35;;;2.50;;
3601;SDS011;1815;50.950;6.920;2023-02-01T17:27:12;7.47;;;2.33;;
3601;SDS011;1815;50.950;6.920;2023-02-01T17:29:38;6.65;;;2.15;;
3601;SDS011;1815;50.950;6.920;2023-02-01T17:32:05;12.15;;;3.47;;
3601;SDS011;1815;50.950;6.920;2023-02-01T17:34:34;17.42;;;7.60;;
3601;SDS011;1815;50.950;6.920;2023-02-01T17:37:00;10.80;;;4.70;;
3601;SDS011;1815;50.950;6.920;2023-02-01T17:39:26;7.72;;;3.08;;
3601;SDS011;1815;50.950;6.920;2023-02-01T17:42:10;10.90;;;2.85;;
3601;SDS011;1815;50.950;6.920;2023-02-01T17:44:36;8.37;;;2.70;;
3601;SDS011;1815;50.950;6.920;2023-02-01T17:47:02;8.27;;;2.70;;